Data for 07/21/2013

Time Sea-Level Adjusted Pressure Absolute Pressure Temperature Relative Humidity Dew Point Precipitation   
(mb) (inHg) (mb) (inHg) (C) (F) (%) (C) (F) (mm) (in)
00:05 1018 30.06 847 25.01 13.2 55.7 56 4.6 40.3 0 0
00:10 1018 30.06 847 25.01 12 53.7 58 4 39.2 0 0
00:15 1018 30.06 847 25.01 12.1 53.8 51 2.5 36.4 0 0
00:20 1018 30.06 847 25.01 12.7 54.9 56 4.3 39.8 0 0
00:25 1018 30.06 847 25.01 11.7 53.1 61 4.5 40.1 0 0
00:30 1018 30.06 847 25.01 11.1 51.9 63 4.3 39.7 0 0
00:35 1018 30.06 847 25.01 10.7 51.2 66 4.7 40.5 0 0
00:40 1018 30.06 847 25.01 10.3 50.5 64 3.8 38.8 0 0
00:45 1018 30.06 847 25.01 10.9 51.6 60 3.6 38.5 0 0
00:50 1018 30.06 847 25.01 11.4 52.5 59 3.6 38.5 0 0
00:55 1018 30.06 847 25.01 11.5 52.6 59 3.7 38.6 0 0
01:00 1018 30.06 847 25.01 11.4 52.6 58 3.5 38.3 0 0
01:05 1018 30.06 847 25.01 11.6 52.8 57 3.3 37.9 0 0
01:10 1018 30.06 847 25.01 11.8 53.2 56 3.4 38 0 0
01:15 1018 30.06 847 25.01 11.3 52.4 60 3.9 39 0 0
01:20 1018 30.06 847 25.01 10.6 51.1 63 4 39.1 0 0
01:25 1018 30.06 847 25.01 10.5 50.9 60 3.1 37.5 0 0
01:30 1018 30.06 847 25.01 10.7 51.3 63 3.9 39.1 0 0
01:35 1018 30.06 847 25.01 10.3 50.6 64 3.9 39 0 0
01:40 1018 30.06 847 25.01 9.9 49.7 65 3.6 38.4 0 0
01:45 1018 30.06 847 25.01 9.7 49.5 68 4.2 39.5 0 0
01:50 1018 30.06 847 25.01 8.8 47.8 72 4 39.3 0 0
01:55 1018 30.06 847 25.01 8.8 47.8 68 3.3 37.9 0 0
02:00 1018 30.06 847 25.01 8.9 48.1 70 3.8 38.8 0 0
02:05 1018 30.06 847 25.01 9 48.2 67 3.3 37.9 0 0
02:10 1018 30.06 847 25.01 8.9 48 69 3.4 38.2 0 0
02:15 1018 30.06 847 25.01 8.6 47.4 69 3.2 37.8 0 0
02:20 1018 30.06 847 25.01 8.9 48.1 65 2.8 37 0 0
02:25 1018 30.06 847 25.01 9.4 48.8 65 3.1 37.5 0 0
02:30 1018 30.06 847 25.01 9.2 48.6 64 2.9 37.2 0 0
02:35 1018 30.06 847 25.01 9.6 49.2 59 2 35.6 0 0
02:40 1018 30.06 847 25.01 10.9 51.6 53 1.6 35 0 0
02:45 1018 30.06 847 25.01 11.8 53.2 51 1.9 35.4 0 0
02:50 1018 30.06 847 25.01 11.9 53.5 51 2.2 36 0 0
02:55 1018 30.06 847 25.01 11.8 53.2 51 2 35.5 0 0
03:00 1018 30.06 847 25.01 11.8 53.3 50 1.8 35.2 0 0
03:05 1018 30.06 847 25.01 11.7 53.1 52 2.2 35.9 0 0
03:10 1018 30.06 847 25.01 11.1 52 55 2.4 36.4 0 0
03:15 1018 30.06 847 25.01 10.8 51.4 58 3 37.4 0 0
03:20 1018 30.06 847 25.01 9.9 49.9 62 3.1 37.6 0 0
03:25 1018 30.06 847 25.01 9.3 48.7 64 2.9 37.3 0 0
03:30 1018 30.06 847 25.01 9 48.1 66 3 37.4 0 0
03:35 1018 30.06 847 25.01 8.8 47.9 65 2.7 36.9 0 0
03:40 1018 30.06 847 25.01 9 48.3 61 2.1 35.7 0 0
03:45 1018 30.06 847 25.01 9.5 49.1 61 2.4 36.3 0 0
03:50 1018 30.06 847 25.01 9.6 49.2 60 2.3 36.2 0 0
03:55 1018 30.06 848 25.04 9.8 49.7 61 2.7 36.8 0 0
04:00 1018 30.06 848 25.04 9 48.2 69 3.7 38.6 0 0
04:05 1018 30.06 848 25.04 8 46.3 74 3.6 38.6 0 0
04:10 1018 30.06 848 25.04 7.4 45.3 72 2.6 36.7 0 0
04:15 1018 30.06 848 25.04 7.3 45.1 75 3.1 37.7 0 0
04:20 1018 30.06 848 25.04 6.9 44.4 75 2.8 37.1 0 0
04:25 1018 30.06 848 25.04 7.7 45.8 70 2.5 36.4 0 0
04:30 1018 30.06 848 25.04 8.1 46.5 71 3.2 37.8 0 0
04:35 1018 30.06 848 25.04 7.9 46.2 72 3.1 37.6 0 0
04:40 1018 30.06 848 25.04 7.7 45.9 69 2.4 36.3 0 0
04:45 1018 30.06 848 25.04 8.4 47.2 68 3 37.3 0 0
04:50 1018 30.06 848 25.04 8.2 46.8 69 3 37.4 0 0
04:55 1018 30.06 848 25.04 8.3 46.9 66 2.4 36.3 0 0
05:00 1018 30.06 848 25.04 8.8 47.8 64 2.4 36.4 0 0
05:05 1018 30.06 848 25.04 8.8 47.8 62 2 35.6 0 0
05:10 1018 30.06 848 25.04 9.5 49 61 2.4 36.4 0 0
05:15 1019 30.09 848 25.04 9.6 49.2 59 2 35.5 0 0
05:20 1019 30.09 848 25.04 10.1 50.2 57 2.1 35.8 0 0
05:25 1019 30.09 848 25.04 10.6 51 53 1.6 34.8 0 0
05:30 1019 30.09 848 25.04 11 51.8 55 2.5 36.4 0 0
05:35 1019 30.09 848 25.04 10.6 51.2 58 2.7 36.9 0 0
05:40 1019 30.09 848 25.04 10.1 50.2 60 2.7 36.9 0 0
05:45 1019 30.09 848 25.04 9.8 49.6 61 2.7 36.9 0 0
05:50 1019 30.09 848 25.04 9.6 49.2 61 2.4 36.4 0 0
05:55 1019 30.09 848 25.04 9.5 49.1 64 3 37.5 0 0
06:00 1019 30.09 848 25.04 9.1 48.4 63 2.6 36.7 0 0
06:05 1019 30.09 848 25.04 9.4 48.9 64 2.9 37.1 0 0
06:10 1019 30.09 848 25.04 9.2 48.6 64 2.8 37 0 0
06:15 1019 30.09 848 25.04 9.4 48.9 62 2.6 36.8 0 0
06:20 1019 30.09 848 25.04 9.6 49.4 61 2.4 36.4 0 0
06:25 1019 30.09 848 25.04 10.1 50.2 58 2.4 36.3 0 0
06:30 1019 30.09 848 25.04 10.7 51.2 60 3.2 37.8 0 0
06:35 1019 30.09 848 25.04 9.8 49.6 66 3.7 38.7 0 0
06:40 1019 30.09 848 25.04 9.8 49.7 65 3.6 38.5 0 0
06:45 1019 30.09 848 25.04 10.3 50.6 64 3.8 38.8 0 0
06:50 1019 30.09 848 25.04 10.7 51.3 64 4.3 39.7 0 0
06:55 1019 30.09 848 25.04 11 51.7 65 4.7 40.5 0 0
07:00 1019 30.09 848 25.04 10.8 51.4 64 4.3 39.8 0 0
07:05 1019 30.09 849 25.07 11.2 52.1 61 3.9 39 0 0
07:10 1019 30.09 849 25.07 11.8 53.2 60 4.3 39.8 0 0
07:15 1019 30.09 849 25.07 12.4 54.2 58 4.3 39.8 0 0
07:20 1019 30.09 849 25.07 12.6 54.7 56 4.1 39.4 0 0
07:25 1019 30.09 849 25.07 13.1 55.5 57 4.8 40.7 0 0
07:30 1020 30.12 849 25.07 13.7 56.6 58 5.6 42 0 0
07:35 1020 30.12 849 25.07 14.2 57.6 54 5.2 41.3 0 0
07:40 1020 30.12 849 25.07 14.5 58.1 55 5.6 42 0 0
07:45 1020 30.12 849 25.07 14.8 58.6 54 5.7 42.2 0 0
07:50 1020 30.12 849 25.07 15.3 59.6 49 4.8 40.6 0 0
07:55 1020 30.12 849 25.07 15.8 60.4 51 5.6 42.2 0 0
08:00 1020 30.12 849 25.07 16.4 61.5 47 5.1 41.1 0 0
08:05 1020 30.12 849 25.07 16.8 62.2 47 5.6 42.1 0 0
08:10 1020 30.12 849 25.07 17.2 62.9 48 6.1 43 0 0
08:15 1020 30.12 849 25.07 17.6 63.7 48 6.5 43.6 0 0
08:20 1020 30.12 849 25.07 18.5 65.3 45 6.4 43.5 0 0
08:25 1020 30.12 849 25.07 18.8 65.8 46 7 44.7 0 0
08:30 1020 30.12 849 25.07 18.8 65.9 43 6.1 43.1 0 0
08:35 1020 30.12 849 25.07 19.4 66.9 43 6.6 43.9 0 0
08:40 1020 30.12 849 25.07 19.8 67.6 42 6.8 44.3 0 0
08:45 1020 30.12 849 25.07 20 68 42 7 44.6 0 0
08:50 1020 30.12 849 25.07 20.5 69 43 7.7 45.8 0 0
08:55 1020 30.12 849 25.07 21 69.9 40 7.1 44.7 0 0
09:00 1020 30.12 849 25.07 21 69.8 37 6.1 43 0 0
09:05 1020 30.12 849 25.07 21.3 70.4 38 6.7 44 0 0
09:10 1020 30.12 849 25.07 21.8 71.3 35 6 42.8 0 0
09:15 1020 30.12 849 25.07 22.2 71.9 35 6.2 43.2 0 0
09:20 1020 30.12 849 25.07 22.3 72.1 35 6.3 43.3 0 0
09:25 1020 30.12 849 25.07 22.1 71.7 33 5.3 41.6 0 0
09:30 1020 30.12 849 25.07 22.1 71.7 32 4.9 40.9 0 0
09:35 1020 30.12 849 25.07 22.3 72.1 25 1.4 34.4 0 0
09:40 1020 30.12 849 25.07 22.1 71.8 29 3.5 38.4 0 0
09:45 1020 30.12 849 25.07 22 71.6 28 2.6 36.8 0 0
09:50 1020 30.12 849 25.07 22.2 72 32 4.9 40.8 0 0
09:55 1020 30.12 849 25.07 22.4 72.3 28 3.3 37.9 0 0
10:00 1020 30.12 849 25.07 22.5 72.5 26 2 35.7 0 0
10:05 1020 30.12 849 25.07 22.6 72.7 24 1.4 34.6 0 0
10:10 1020 30.12 849 25.07 22.8 73 19 -1.6 29.1 0 0
10:15 1020 30.12 849 25.07 22.9 73.3 24 1.7 35.1 0 0
10:20 1020 30.12 849 25.07 23.1 73.7 19 -1.8 28.7 0 0
10:25 1020 30.12 849 25.07 23.4 74 21 0.1 32.2 0 0
10:30 1020 30.12 849 25.07 23.3 74 22 0.5 32.9 0 0
10:35 1020 30.12 849 25.07 23.5 74.2 28 4.1 39.4 0 0
10:40 1020 30.12 849 25.07 23.5 74.4 18 -1.8 28.7 0 0
10:45 1020 30.12 849 25.07 23.6 74.4 19 -1.4 29.6 0 0
10:50 1020 30.12 849 25.07 23.7 74.6 19 -1.4 29.5 0 0
10:55 1020 30.12 849 25.07 23.7 74.7 19 -0.9 30.3 0 0
11:00 1020 30.12 849 25.07 24 75.1 19 -0.9 30.4 0 0
11:05 1020 30.12 849 25.07 24 75.2 17 -2.4 27.6 0 0
11:10 1020 30.12 849 25.07 24.2 75.5 17 -2.6 27.4 0 0
11:15 1020 30.12 849 25.07 24.1 75.4 17 -2.5 27.5 0 0
11:20 1020 30.12 849 25.07 24.2 75.6 16 -2.8 26.9 0 0
11:25 1020 30.12 849 25.07 24.4 75.9 19 -0.7 30.8 0 0
11:30 1020 30.12 849 25.07 24.5 76.2 17 -2.2 28 0 0
11:35 1020 30.12 849 25.07 24.7 76.4 16 -2.6 27.4 0 0
11:40 1020 30.12 849 25.07 24.8 76.6 17 -1.9 28.7 0 0
11:45 1020 30.12 849 25.07 24.6 76.3 15 -3.4 25.9 0 0
11:50 1020 30.12 849 25.07 24.8 76.6 17 -1.4 29.6 0 0
11:55 1020 30.12 849 25.07 25.1 77.3 18 -0.8 30.6 0 0
12:00 1020 30.12 849 25.07 24.8 76.7 17 -1.7 28.9 0 0
12:05 1020 30.12 849 25.07 24.8 76.6 14 -3.9 25 0 0
12:10 1020 30.12 849 25.07 24.8 76.6 18 -0.8 30.5 0 0
12:15 1019 30.09 849 25.07 24.9 76.9 20 0.9 33.7 0 0
12:20 1019 30.09 849 25.07 25.1 77.1 17 -1.4 29.4 0 0
12:25 1019 30.09 849 25.07 24.8 76.7 17 -2 28.4 0 0
12:30 1019 30.09 849 25.07 24.7 76.5 17 -2 28.5 0 0
12:35 1019 30.09 848 25.04 25.3 77.5 16 -2.2 28 0 0
12:40 1019 30.09 848 25.04 25.7 78.2 15 -3 26.6 0 0
12:45 1019 30.09 848 25.04 25.6 78.1 15 -3.1 26.5 0 0
12:50 1019 30.09 848 25.04 25.4 77.6 15 -2.6 27.4 0 0
12:55 1019 30.09 848 25.04 25.6 78.1 17 -1.2 29.8 0 0
13:00 1019 30.09 848 25.04 25.3 77.5 16 -1.9 28.6 0 0
13:05 1019 30.09 848 25.04 25.4 77.7 18 -0.5 31 0 0
13:10 1019 30.09 848 25.04 25.6 78 15 -2.3 27.8 0 0
13:15 1019 30.09 848 25.04 25.8 78.4 14 -3.1 26.3 0 0
13:20 1019 30.09 848 25.04 25.9 78.5 14 -3.1 26.5 0 0
13:25 1019 30.09 848 25.04 26.2 79.2 14 -2.7 27.1 0 0
13:30 1019 30.09 848 25.04 26.3 79.4 14 -3.3 26.1 0 0
13:35 1019 30.09 848 25.04 26.3 79.4 16 -1.1 30 0 0
13:40 1019 30.09 848 25.04 26.7 80.1 18 0.6 33 0 0
13:45 1019 30.09 848 25.04 26.5 79.6 15 -1.6 29.1 0 0
13:50 1019 30.09 848 25.04 26.5 79.7 16 -1.4 29.5 0 0
13:55 1019 30.09 848 25.04 27 80.6 16 -0.5 31.2 0 0
14:00 1019 30.09 848 25.04 27.1 80.9 15 -1.8 28.8 0 0
14:05 1019 30.09 848 25.04 27.1 80.7 13 -3.6 25.5 0 0
14:10 1019 30.09 848 25.04 26.7 80 15 -1.8 28.7 0 0
14:15 1018 30.06 848 25.04 26.8 80.3 13 -3.5 25.7 0 0
14:20 1018 30.06 848 25.04 27 80.5 13 -3.6 25.4 0 0
14:25 1018 30.06 848 25.04 27 80.6 12 -4.7 23.6 0 0
14:30 1018 30.06 848 25.04 27.4 81.2 13 -3 26.6 0 0
14:35 1018 30.06 848 25.04 27.5 81.4 12 -4.2 24.4 0 0
14:40 1018 30.06 848 25.04 27.4 81.4 13 -3.1 26.4 0 0
14:45 1018 30.06 848 25.04 27.5 81.6 12 -4.7 23.6 0 0
14:50 1018 30.06 848 25.04 27.6 81.8 12 -3.6 25.5 0 0
14:55 1018 30.06 848 25.04 27.7 81.8 13 -3.3 26.1 0 0
15:00 1018 30.06 847 25.01 27.8 82 12 -3.8 25.2 0 0
15:05 1018 30.06 847 25.01 27.8 82 11 -4.8 23.3 0 0
15:10 1018 30.06 847 25.01 28 82.3 12 -3.4 25.9 0 0
15:15 1018 30.06 847 25.01 28.2 82.7 14 -2 28.5 0 0
15:20 1018 30.06 847 25.01 28.3 83 11 -4.3 24.2 0 0
15:25 1018 30.06 847 25.01 28.3 82.9 12 -4 24.8 0 0
15:30 1018 30.06 847 25.01 28.7 83.7 12 -3.7 25.4 0 0
15:35 1018 30.06 847 25.01 28.6 83.5 11 -3.9 24.9 0 0
15:40 1018 30.06 847 25.01 28.5 83.4 12 -3.4 25.9 0 0
15:45 1018 30.06 847 25.01 28.5 83.2 13 -2 28.5 0 0
15:50 1018 30.06 847 25.01 28.7 83.7 11 -3.8 25.2 0 0
15:55 1018 30.06 847 25.01 28.9 84 13 -2 28.3 0 0
16:00 1018 30.06 847 25.01 28.8 83.8 11 -4 24.7 0 0
16:05 1018 30.06 847 25.01 28.6 83.5 13 -2.6 27.4 0 0
16:10 1018 30.06 847 25.01 28.8 83.8 13 -1.7 29 0 0
16:15 1018 30.06 847 25.01 29 84.3 12 -3 26.6 0 0
16:20 1018 30.06 847 25.01 29.2 84.6 12 -3.2 26.2 0 0
16:25 1018 30.06 847 25.01 28.9 84.1 13 -2.2 28 0 0
16:30 1018 30.06 847 25.01 28.9 83.9 12 -3 26.7 0 0
16:35 1018 30.06 847 25.01 28.9 84 12 -3.4 25.9 0 0
16:40 1018 30.06 847 25.01 29.2 84.5 11 -3.9 25 0 0
16:45 1018 30.06 847 25.01 28.9 84.1 11 -4 24.9 0 0
16:50 1018 30.06 847 25.01 28.8 83.9 10 -5.4 22.3 0 0
16:55 1017 30.03 847 25.01 28.9 84 11 -3.9 25 0 0
17:00 1017 30.03 847 25.01 29.6 85.2 10 -4.7 23.6 0 0
17:05 1017 30.03 847 25.01 29.9 85.8 11 -3.6 25.6 0 0
17:10 1017 30.03 847 25.01 30 86 10 -4.9 23.3 0 0
17:15 1017 30.03 847 25.01 30 86 12 -2.2 28.1 0 0
17:20 1017 30.03 847 25.01 29.7 85.4 10 -4.3 24.2 0 0
17:25 1017 30.03 846 24.98 29.5 85.1 11 -3.1 26.3 0 0
17:30 1017 30.03 846 24.98 29.4 84.9 12 -2.5 27.4 0 0
17:35 1017 30.03 846 24.98 29.2 84.6 12 -2.3 27.9 0 0
17:40 1017 30.03 846 24.98 29.3 84.8 12 -2.6 27.3 0 0
17:45 1017 30.03 846 24.98 29.3 84.8 10 -4.5 23.9 0 0
17:50 1017 30.03 846 24.98 29.3 84.7 10 -4.9 23.2 0 0
17:55 1017 30.03 846 24.98 29.5 85.1 10 -4.5 23.9 0 0
18:00 1017 30.03 846 24.98 29.6 85.3 10 -5 23 0 0
18:05 1017 30.03 846 24.98 29.8 85.6 10 -4.9 23.2 0 0
18:10 1017 30.03 846 24.98 29.7 85.5 10 -4.2 24.5 0 0
18:15 1017 30.03 846 24.98 30 86 9 -5.9 21.5 0 0
18:20 1017 30.03 846 24.98 30.3 86.6 11 -3.6 25.5 0 0
18:25 1017 30.03 846 24.98 30 85.9 9 -6.7 20 0 0
18:30 1017 30.03 846 24.98 29.8 85.7 9 -5.8 21.6 0 0
18:35 1017 30.03 846 24.98 30.2 86.3 8 -6.9 19.6 0 0
18:40 1017 30.03 846 24.98 30.3 86.6 14 -0 31.9 0 0
18:45 1017 30.03 846 24.98 30.1 86.2 11 -3.2 26.3 0 0
18:50 1017 30.03 846 24.98 30 85.9 16 1.6 34.8 0 0
18:55 1017 30.03 846 24.98 29.9 85.8 12 -2.3 27.8 0 0
19:00 1017 30.03 846 24.98 29.4 85 14 -1 30.2 0 0
19:05 1017 30.03 846 24.98 29.4 84.9 13 -1.7 28.9 0 0
19:10 1017 30.03 846 24.98 29.3 84.7 12 -2.5 27.6 0 0
19:15 1017 30.03 846 24.98 29.1 84.4 12 -2.5 27.5 0 0
19:20 1017 30.03 846 24.98 28.9 84 13 -2.2 28 0 0
19:25 1017 30.03 846 24.98 28.6 83.4 12 -3.8 25.2 0 0
19:30 1017 30.03 846 24.98 28.3 83 14 -1.2 29.8 0 0
19:35 1017 30.03 846 24.98 28 82.4 13 -3 26.6 0 0
19:40 1017 30.03 846 24.98 28 82.5 12 -3.3 26 0 0
19:45 1017 30.03 846 24.98 28.1 82.6 12 -3.7 25.4 0 0
19:50 1017 30.03 846 24.98 28.4 83.1 13 -2.8 27 0 0
19:55 1017 30.03 846 24.98 28.3 82.9 13 -2.8 27 0 0
20:00 1017 30.03 846 24.98 28 82.4 12 -4 24.8 0 0
20:05 1017 30.03 846 24.98 28 82.4 13 -2.6 27.2 0 0
20:10 1017 30.03 846 24.98 27.4 81.3 26 6.4 43.5 0 0
20:15 1017 30.03 846 24.98 25.8 78.5 26 4.9 40.8 0 0
20:20 1017 30.03 846 24.98 25.2 77.4 25 3.8 38.8 0 0
20:25 1017 30.03 846 24.98 24.4 75.9 39 9.6 49.3 0 0
20:30 1017 30.03 846 24.98 22 71.7 44 9.5 49.1 0 0
20:35 1017 30.03 846 24.98 20.9 69.6 44 8.4 47.1 0 0
20:40 1017 30.03 846 24.98 20.1 68.2 48 8.9 47.9 0 0
20:45 1017 30.03 846 24.98 19.1 66.4 46 7.3 45.1 0 0
20:50 1017 30.03 846 24.98 18.8 65.8 47 7.3 45.2 0 0
20:55 1017 30.03 846 24.98 18.3 64.9 45 6.4 43.4 0 0
21:00 1017 30.03 846 24.98 17.9 64.2 43 5.2 41.4 0 0
21:05 1017 30.03 846 24.98 17.6 63.8 41 4.3 39.7 0 0
21:10 1017 30.03 846 24.98 17.2 63 42 4.4 39.9 0 0
21:15 1017 30.03 846 24.98 16.7 62.1 47 5.5 41.8 0 0
21:20 1017 30.03 846 24.98 15.3 59.6 49 4.6 40.4 0 0
21:25 1017 30.03 846 24.98 14.9 58.8 50 4.5 40.2 0 0
21:30 1017 30.03 846 24.98 14.9 58.8 43 2.6 36.7 0 0
21:35 1017 30.03 847 25.01 15.2 59.3 45 3.5 38.2 0 0
21:40 1017 30.03 847 25.01 14.7 58.5 47 3.5 38.3 0 0
21:45 1017 30.03 847 25.01 15 58.9 45 3.2 37.7 0 0
21:50 1017 30.03 847 25.01 15 58.9 43 2.5 36.4 0 0
21:55 1018 30.06 847 25.01 15.6 60.2 41 2.6 36.7 0 0
22:00 1018 30.06 847 25.01 15.3 59.6 40 1.8 35.2 0 0
22:05 1018 30.06 847 25.01 15.6 60.1 37 0.9 33.7 0 0
22:10 1018 30.06 847 25.01 16.2 61.1 33 -0.1 31.9 0 0
22:15 1018 30.06 847 25.01 16.5 61.6 33 0.3 32.6 0 0
22:20 1018 30.06 847 25.01 16 60.8 33 0 32.1 0 0
22:25 1018 30.06 847 25.01 16.3 61.4 30 -1.2 29.9 0 0
22:30 1018 30.06 847 25.01 17.1 62.7 29 -0.9 30.4 0 0
22:35 1018 30.06 847 25.01 17.1 62.7 32 0.2 32.4 0 0
22:40 1018 30.06 847 25.01 16.1 61 33 0 32 0 0
22:45 1018 30.06 847 25.01 16.3 61.3 29 -1.7 28.9 0 0
22:50 1018 30.06 847 25.01 16.9 62.4 30 -0.6 31 0 0
22:55 1018 30.06 847 25.01 16.3 61.3 34 0.3 32.5 0 0
23:00 1018 30.06 847 25.01 15.4 59.8 33 -0.7 30.8 0 0
23:05 1018 30.06 847 25.01 16.1 61 30 -1.4 29.5 0 0
23:10 1018 30.06 847 25.01 16.9 62.4 30 -0.8 30.6 0 0
23:15 1018 30.06 847 25.01 17.2 62.9 32 0.3 32.5 0 0
23:20 1018 30.06 847 25.01 17.1 62.7 33 1 33.8 0 0
23:25 1018 30.06 847 25.01 19 66.2 29 0.7 33.2 0 0
23:30 1018 30.06 847 25.01 19.6 67.3 33 3 37.4 0 0
23:35 1018 30.06 847 25.01 20.1 68.2 30 2.2 35.9 0 0
23:40 1018 30.06 847 25.01 20.9 69.7 30 2.9 37.1 0 0
23:45 1018 30.06 847 25.01 21.4 70.4 30 3 37.5 0 0
23:50 1018 30.06 847 25.01 21.5 70.7 31 3.8 38.9 0 0
23:55 1018 30.06 847 25.01 21.5 70.7 31 3.9 39.1 0 0
24:00 1018 30.06 847 25.01 21.5 70.7 31 3.8 38.8 0 0